.
WxDataArchive / Data Records for 2011-10-10
2011-10-09 October 2011 2011-10-11

Data Records for Monday, 10 October 2011

Time	Temp	Chill	HIndex	Humid	Dewpt	 Wind 	HiWind	WindDir	Rain 	Barom 
-----	----	-----	------	-----	-----	------	------	-------	-----	----- 
00:00	58.0	58.0	58.0	65	46.3	0	0	---	0.00	30.278 
00:05	57.8	57.8	57.8	65	46.1	0	0	---	0.00	30.278 
00:10	57.6	57.6	57.6	66	46.3	0	0	---	0.00	30.278 
00:15	57.6	57.6	57.6	66	46.3	0	0	---	0.00	30.276 
00:20	57.5	57.5	57.5	66	46.2	0	0	---	0.00	30.276 
00:25	57.3	57.3	57.3	67	46.4	0	0	---	0.00	30.276 
00:30	57.2	57.2	57.2	68	46.7	0	0	---	0.00	30.272 
00:35	57.0	57.0	57.0	68	46.5	0	0	---	0.00	30.272 
00:40	56.9	56.9	56.9	69	46.8	0	0	---	0.00	30.272 
00:45	56.7	56.7	56.7	69	46.6	0	0	---	0.00	30.269 
00:50	56.6	56.6	56.6	70	46.9	0	0	---	0.00	30.269 
00:55	56.3	56.3	56.3	70	46.6	0	0	---	0.00	30.269 
01:00	56.2	56.2	56.2	71	46.9	0	0	---	0.00	30.267 
01:05	56.0	56.0	56.0	71	46.7	0	0	---	0.00	30.267 
01:10	55.7	55.7	55.7	72	46.8	0	0	---	0.00	30.267 
01:15	55.6	55.6	55.6	72	46.7	0	0	---	0.00	30.269 
01:20	55.4	55.4	55.4	73	46.9	0	0	---	0.00	30.269 
01:25	55.3	55.3	55.3	73	46.8	0	0	---	0.00	30.269 
01:30	55.1	55.1	55.1	74	47.0	0	0	---	0.00	30.273 
01:35	55.0	55.0	55.0	74	46.9	0	0	---	0.00	30.273 
01:40	54.8	54.8	54.8	75	47.0	0	0	---	0.00	30.273 
01:45	54.7	54.7	54.7	75	46.9	0	0	---	0.00	30.268 
01:50	54.5	54.5	54.5	76	47.1	0	0	---	0.00	30.268 
01:55	54.4	54.4	54.4	77	47.3	0	0	---	0.00	30.268 
02:00	54.2	54.2	54.2	77	47.1	0	0	---	0.00	30.268 
02:05	54.1	54.1	54.1	77	47.0	0	0	---	0.00	30.268 
02:10	53.9	53.9	53.9	77	46.9	0	0	---	0.00	30.268 
02:15	53.8	53.8	53.8	78	47.1	0	0	---	0.00	30.268 
02:20	53.6	53.6	53.6	78	46.9	0	0	---	0.00	30.268 
02:25	53.6	53.6	53.6	78	46.9	0	0	---	0.00	30.268 
02:30	53.6	53.6	53.6	79	47.2	0	0	---	0.00	30.267 
02:35	53.5	53.5	53.5	79	47.1	0	0	---	0.00	30.267 
02:40	53.5	53.5	53.5	79	47.1	0	0	---	0.00	30.267 
02:45	53.3	53.3	53.3	79	47.0	0	0	---	0.00	30.267 
02:50	53.2	53.2	53.2	79	46.9	0	0	---	0.00	30.267 
02:55	53.1	53.1	53.1	80	47.1	0	0	---	0.00	30.267 
03:00	52.9	52.9	52.9	80	46.9	0	0	---	0.00	30.266 
03:05	52.8	52.8	52.8	81	47.1	0	0	---	0.00	30.266 
03:10	52.6	52.6	52.6	81	46.9	0	0	---	0.00	30.266 
03:15	52.5	52.5	52.5	82	47.2	0	0	---	0.00	30.262 
03:20	52.3	52.3	52.3	82	47.0	0	0	---	0.00	30.262 
03:25	52.2	52.2	52.2	82	46.9	0	0	---	0.00	30.262 
03:30	52.0	52.0	52.0	83	47.0	0	0	---	0.00	30.257 
03:35	51.9	51.9	51.9	84	47.2	0	0	---	0.00	30.257 
03:40	51.9	51.9	51.9	84	47.2	0	0	---	0.00	30.257 
03:45	51.7	51.7	51.7	84	47.0	0	0	---	0.00	30.252 
03:50	51.6	51.6	51.6	84	46.9	0	0	---	0.00	30.252 
03:55	51.4	51.4	51.4	84	46.7	0	0	---	0.00	30.252 
04:00	51.4	51.4	51.4	84	46.7	0	0	---	0.00	30.251 
04:05	51.3	51.3	51.3	84	46.6	0	0	---	0.00	30.251 
04:10	51.1	51.1	51.1	85	46.7	0	0	---	0.00	30.251 
04:15	51.1	51.1	51.1	85	46.7	0	0	---	0.00	30.249 
04:20	51.0	51.0	51.0	85	46.7	0	0	---	0.00	30.249 
04:25	51.0	51.0	51.0	85	46.7	0	0	---	0.00	30.249 
04:30	51.0	51.0	51.0	85	46.7	0	0	---	0.00	30.249 
04:35	51.0	51.0	51.0	86	47.0	0	0	---	0.00	30.249 
04:40	51.0	51.0	51.0	86	47.0	0	0	---	0.00	30.249 
04:45	51.0	51.0	51.0	86	47.0	0	0	---	0.00	30.244 
04:50	50.8	50.8	50.8	87	47.1	0	0	---	0.00	30.244 
04:55	50.8	50.8	50.8	87	47.1	0	0	---	0.00	30.244 
05:00	50.8	50.8	50.8	87	47.1	0	0	---	0.00	30.239 
05:05	50.7	50.7	50.7	88	47.3	0	0	---	0.00	30.239 
05:10	50.7	50.7	50.7	88	47.3	0	0	---	0.00	30.239 
05:15	50.5	50.5	50.5	88	47.1	0	0	---	0.00	30.240 
05:20	50.5	50.5	50.5	88	47.1	0	0	---	0.00	30.240 
05:25	50.5	50.5	50.5	88	47.1	0	0	---	0.00	30.240 
05:30	50.4	50.4	50.4	88	47.0	0	0	---	0.00	30.236 
05:35	50.2	50.2	50.2	88	46.8	0	0	---	0.00	30.236 
05:40	50.2	50.2	50.2	89	47.1	0	0	---	0.00	30.236 
05:45	50.2	50.2	50.2	89	47.1	0	0	---	0.00	30.236 
05:50	50.1	50.1	50.1	89	47.0	0	0	---	0.00	30.236 
05:55	50.1	50.1	50.1	89	47.0	0	0	---	0.00	30.236 
06:00	50.1	50.1	50.1	89	47.0	0	0	---	0.00	30.235 
06:05	50.1	50.1	50.1	89	47.0	0	0	---	0.00	30.235 
06:10	50.1	50.1	50.1	89	47.0	0	0	---	0.00	30.235 
06:15	50.1	50.1	50.1	89	47.0	0	0	---	0.00	30.239 
06:20	50.1	50.1	50.1	89	47.0	0	0	---	0.00	30.239 
06:25	50.2	50.2	50.2	89	47.1	0	0	---	0.00	30.239 
06:30	50.2	50.2	50.2	89	47.1	0	0	---	0.00	30.239 
06:35	50.7	50.7	50.7	89	47.6	0	1	180	0.00	30.239 
06:40	51.1	51.1	51.1	88	47.7	0	1	180	0.00	30.239 
06:45	51.4	51.4	51.4	87	47.7	0	0	---	0.00	30.237 
06:50	51.7	51.7	51.7	86	47.6	0	0	---	0.00	30.237 
06:55	51.9	51.9	51.9	86	47.8	0	1	180	0.00	30.237 
07:00	52.0	52.0	52.0	85	47.6	0	0	---	0.00	30.236 
07:05	52.0	52.0	52.0	85	47.6	0	0	---	0.00	30.236 
07:10	52.2	52.2	52.2	84	47.5	0	1	180	0.00	30.236 
07:15	52.3	52.3	52.3	84	47.6	0	0	---	0.00	30.239 
07:20	52.3	52.3	52.3	84	47.6	0	0	---	0.00	30.239 
07:25	52.2	52.2	52.2	84	47.5	0	0	---	0.00	30.239 
07:30	52.2	52.2	52.2	84	47.5	0	0	---	0.00	30.243 
07:35	52.2	52.2	52.2	84	47.5	0	1	180	0.00	30.243 
07:40	52.5	52.5	52.5	84	47.8	0	2	0	0.00	30.243 
07:45	52.6	52.6	52.6	83	47.6	0	2	0	0.00	30.247 
07:50	52.8	52.8	52.8	83	47.8	0	2	0	0.00	30.247 
07:55	52.9	52.9	52.9	83	47.9	0	2	0	0.00	30.247 
08:00	52.9	52.9	52.9	83	47.9	0	1	0	0.00	30.248 
08:05	53.1	53.1	53.1	83	48.1	0	1	0	0.00	30.248 
08:10	53.1	53.1	53.1	83	48.1	0	1	0	0.00	30.248 
08:15	53.2	53.2	53.2	83	48.2	0	0	---	0.00	30.251 
08:20	53.3	53.3	53.3	83	48.3	0	1	0	0.00	30.251 
08:25	53.5	53.5	53.5	83	48.5	0	0	---	0.00	30.251 
08:30	53.6	53.6	53.6	83	48.6	0	1	0	0.00	30.253 
08:35	53.9	53.9	53.9	83	48.9	0	1	0	0.00	30.253 
08:40	54.1	54.1	54.1	83	49.1	0	1	0	0.00	30.253 
08:45	54.2	54.2	54.2	82	48.8	0	1	0	0.00	30.257 
08:50	54.4	54.4	54.4	82	49.0	0	2	0	0.00	30.257 
08:55	54.5	54.5	54.5	82	49.1	0	1	0	0.00	30.257 
09:00	54.7	54.7	54.7	82	49.3	0	1	0	0.00	30.254 
09:05	54.8	54.8	54.8	82	49.4	0	1	0	0.00	30.254 
09:10	55.0	55.0	55.0	81	49.3	0	1	0	0.00	30.254 
09:15	55.1	55.1	55.1	81	49.4	0	1	0	0.00	30.263 
09:20	55.1	55.1	55.1	81	49.4	0	1	0	0.00	30.263 
09:25	55.3	55.3	55.3	82	49.9	0	1	0	0.00	30.263 
09:30	55.4	55.4	55.4	81	49.7	0	1	0	0.00	30.260 
09:35	55.6	55.6	55.6	81	49.9	0	1	0	0.00	30.260 
09:40	55.7	55.7	55.7	82	50.3	0	0	---	0.00	30.260 
09:45	55.9	55.9	55.9	81	50.2	0	1	0	0.00	30.258 
09:50	56.0	56.0	56.0	81	50.3	0	1	0	0.00	30.258 
09:55	56.3	56.3	56.3	81	50.5	0	1	0	0.00	30.258 
10:00	56.5	56.5	56.5	81	50.7	0	2	112	0.00	30.258 
10:05	56.9	56.9	56.9	81	51.1	0	2	112	0.00	30.258 
10:10	57.3	57.3	57.3	81	51.5	0	2	90	0.00	30.258 
10:15	58.3	58.3	58.3	78	51.5	0	3	90	0.00	30.263 
10:20	59.2	59.2	59.2	76	51.6	1	3	90	0.00	30.263 
10:25	60.1	60.1	60.1	75	52.1	1	3	90	0.00	30.263 
10:30	61.0	61.0	61.0	72	51.9	1	4	90	0.00	30.261 
10:35	62.1	62.1	62.1	70	52.2	1	3	112	0.00	30.261 
10:40	63.1	63.1	63.1	68	52.4	1	3	112	0.00	30.261 
10:45	64.2	64.2	64.2	67	53.0	0	2	112	0.00	30.252 
10:50	65.3	65.3	65.3	62	51.9	1	4	112	0.00	30.252 
10:55	66.0	66.0	66.0	62	52.6	1	6	112	0.00	30.252 
11:00	66.6	66.6	66.6	60	52.3	1	3	112	0.00	30.251 
11:05	67.3	67.3	67.3	58	52.0	1	3	112	0.00	30.251 
11:10	67.8	67.8	67.8	58	52.5	1	3	112	0.00	30.251 
11:15	68.4	68.4	68.4	58	53.0	1	5	90	0.00	30.245 
11:20	68.9	68.9	68.9	56	52.5	1	5	90	0.00	30.245 
11:25	69.4	69.4	69.4	57	53.5	0	2	248	0.00	30.245 
11:30	69.8	69.8	69.8	57	53.9	1	4	270	0.00	30.236 
11:35	70.1	70.1	70.1	53	52.2	1	3	90	0.00	30.236 
11:40	70.3	70.3	70.3	54	52.9	1	3	90	0.00	30.236 
11:45	70.3	70.3	70.3	54	52.9	0	3	90	0.00	30.236 
11:50	70.4	70.4	70.4	56	53.9	0	2	90	0.00	30.236 
11:55	70.6	70.6	70.6	55	53.6	0	2	90	0.00	30.236 
12:00	70.9	70.9	70.9	54	53.4	0	2	90	0.00	30.235 
12:05	70.9	70.9	70.9	53	52.9	1	3	90	0.00	30.235 
12:10	70.9	70.9	70.9	53	52.9	0	3	248	0.00	30.235 
12:15	71.1	71.1	71.1	53	53.1	0	3	270	0.00	30.235 
12:20	71.3	71.3	71.3	52	52.8	1	3	270	0.00	30.235 
12:25	71.5	71.5	71.5	52	52.9	1	3	270	0.00	30.235 
12:30	71.8	71.8	71.8	54	54.2	0	1	270	0.00	30.234 
12:35	72.0	72.0	72.0	53	53.9	1	4	270	0.00	30.234 
12:40	72.3	72.3	72.3	51	53.1	1	4	338	0.00	30.234 
12:45	72.8	72.8	72.8	50	53.1	0	3	90	0.00	30.232 
12:50	73.2	73.2	73.2	52	54.5	0	2	202	0.00	30.232 
12:55	73.3	73.3	73.3	51	54.1	1	2	202	0.00	30.232 
13:00	73.7	73.7	73.7	50	53.9	1	3	68	0.00	30.227 
13:05	73.9	73.9	73.9	50	54.1	0	3	112	0.00	30.227 
13:10	74.0	74.0	74.0	49	53.6	1	3	112	0.00	30.227 
13:15	74.6	74.6	74.6	48	53.6	0	2	112	0.00	30.219 
13:20	74.7	74.7	74.7	47	53.1	0	2	112	0.00	30.219 
13:25	74.9	74.9	74.9	49	54.4	1	5	112	0.00	30.219 
13:30	75.1	75.1	77.7	46	52.9	1	3	248	0.00	30.215 
13:35	75.4	75.4	77.8	46	53.2	1	3	225	0.00	30.215 
13:40	75.6	75.6	77.8	46	53.3	0	3	90	0.00	30.215 
13:45	76.0	76.0	78.0	46	53.7	1	5	90	0.00	30.203 
13:50	76.1	76.1	78.1	48	55.0	1	2	248	0.00	30.203 
13:55	76.1	76.1	78.0	45	53.2	1	4	68	0.00	30.203 
14:00	76.5	76.5	78.3	47	54.7	1	4	248	0.00	30.199 
14:05	76.8	76.8	78.3	44	53.2	1	4	248	0.00	30.199 
14:10	76.8	76.8	78.3	44	53.2	1	4	112	0.00	30.199 
14:15	76.7	76.7	78.2	43	52.5	1	2	112	0.00	30.191 
14:20	76.5	76.5	78.2	46	54.2	1	5	90	0.00	30.191 
14:25	76.7	76.7	78.3	45	53.7	1	3	180	0.00	30.191 
14:30	76.8	76.8	78.3	43	52.6	1	4	112	0.00	30.184 
14:35	76.8	76.8	78.3	45	53.8	0	4	68	0.00	30.184 
14:40	77.0	77.0	78.4	44	53.4	1	4	315	0.00	30.184 
14:45	77.2	77.2	78.4	41	51.7	1	5	0	0.00	30.175 
14:50	77.0	77.0	78.3	42	52.1	1	3	112	0.00	30.175 
14:55	77.2	77.2	78.5	43	52.9	1	4	225	0.00	30.175 
15:00	77.4	77.4	78.5	42	52.5	1	3	135	0.00	30.169 
15:05	77.4	77.4	78.5	41	51.8	1	3	292	0.00	30.169 
15:10	77.6	77.6	78.5	39	50.7	1	3	68	0.00	30.169 
15:15	77.6	77.6	78.4	38	50.0	1	4	112	0.00	30.161 
15:20	77.6	77.6	78.4	38	50.0	2	7	90	0.00	30.161 
15:25	77.7	77.7	78.6	41	52.1	1	5	135	0.00	30.161 
15:30	77.7	77.7	78.6	40	51.4	1	4	158	0.00	30.154 
15:35	77.9	77.9	78.7	40	51.6	1	2	68	0.00	30.154 
15:40	78.1	78.1	78.7	39	51.1	1	3	68	0.00	30.154 
15:45	78.1	78.1	78.7	38	50.4	1	5	112	0.00	30.152 
15:50	78.1	78.1	78.6	37	49.7	2	6	112	0.00	30.152 
15:55	78.1	78.1	78.5	36	48.9	1	5	90	0.00	30.152 
16:00	78.1	78.1	78.5	36	48.9	1	4	90	0.00	30.144 
16:05	78.3	78.3	78.7	37	49.9	1	4	248	0.00	30.144 
16:10	78.3	78.3	78.6	35	48.4	1	4	90	0.00	30.144 
16:15	78.3	78.3	78.5	34	47.6	1	5	90	0.00	30.139 
16:20	78.3	78.3	78.6	35	48.4	1	4	90	0.00	30.139 
16:25	78.1	78.1	78.5	35	48.2	1	4	90	0.00	30.139 
16:30	78.1	78.1	78.4	34	47.4	1	5	112	0.00	30.137 
16:35	78.1	78.1	78.5	35	48.2	1	3	68	0.00	30.137 
16:40	78.1	78.1	78.2	31	45.0	1	4	112	0.00	30.137 
16:45	78.3	78.3	78.4	32	46.0	1	4	90	0.00	30.131 
16:50	78.3	78.3	78.4	32	46.0	1	6	90	0.00	30.131 
16:55	78.3	78.3	78.4	32	46.0	1	3	270	0.00	30.131 
17:00	78.1	78.1	78.4	34	47.4	0	2	270	0.00	30.127 
17:05	77.7	77.7	78.2	34	47.1	1	3	68	0.00	30.127 
17:10	77.7	77.7	78.2	33	46.3	1	4	90	0.00	30.127 
17:15	77.7	77.7	78.3	35	47.8	1	2	112	0.00	30.122 
17:20	77.9	77.9	78.2	32	45.6	1	4	112	0.00	30.122 
17:25	77.9	77.9	78.1	31	44.8	2	6	90	0.00	30.122 
17:30	78.1	78.1	78.2	31	45.0	1	5	112	0.00	30.118 
17:35	78.1	78.1	78.4	33	46.6	1	4	90	0.00	30.118 
17:40	77.9	77.9	78.1	31	44.8	1	6	112	0.00	30.118 
17:45	77.9	77.9	78.1	31	44.8	1	4	112	0.00	30.115 
17:50	77.7	77.7	78.0	31	44.6	1	4	112	0.00	30.115 
17:55	77.6	77.6	78.1	32	45.4	0	2	135	0.00	30.115 
18:00	77.2	77.2	77.9	33	45.8	0	1	135	0.00	30.117 
18:05	76.8	76.8	77.8	34	46.3	1	3	135	0.00	30.117 
18:10	76.5	76.5	77.8	35	46.8	0	2	135	0.00	30.117 
18:15	76.1	76.1	77.6	35	46.4	0	2	112	0.00	30.111 
18:20	76.0	76.0	77.6	36	47.1	0	2	112	0.00	30.111 
18:25	75.8	75.8	77.6	37	47.7	0	1	112	0.00	30.111 
18:30	75.6	75.6	77.6	37	47.5	0	1	112	0.00	30.109 
18:35	75.3	75.3	77.5	37	47.2	0	1	112	0.00	30.109 
18:40	74.9	74.9	74.9	38	47.6	0	1	112	0.00	30.109 
18:45	74.6	74.6	74.6	39	48.0	0	1	112	0.00	30.107 
18:50	74.2	74.2	74.2	39	47.6	0	0	---	0.00	30.107 
18:55	73.9	73.9	73.9	40	48.0	0	0	---	0.00	30.107 
19:00	73.3	73.3	73.3	40	47.5	0	0	---	0.00	30.106 
19:05	73.0	73.0	73.0	40	47.2	0	0	---	0.00	30.106 
19:10	72.7	72.7	72.7	41	47.6	0	0	---	0.00	30.106 
19:15	72.3	72.3	72.3	42	47.9	0	0	---	0.00	30.111 
19:20	72.0	72.0	72.0	41	47.0	0	0	---	0.00	30.111 
19:25	71.6	71.6	71.6	41	46.6	0	1	112	0.00	30.111 
19:30	71.3	71.3	71.3	42	47.0	0	0	---	0.00	30.111 
19:35	70.8	70.8	70.8	43	47.2	0	0	---	0.00	30.111 
19:40	70.3	70.3	70.3	42	46.1	0	0	---	0.00	30.111 
19:45	69.8	69.8	69.8	43	46.3	0	0	---	0.00	30.113 
19:50	69.3	69.3	69.3	43	45.8	0	0	---	0.00	30.113 
19:55	68.8	68.8	68.8	43	45.4	0	0	---	0.00	30.113 
20:00	68.3	68.3	68.3	44	45.5	0	0	---	0.00	30.114 
20:05	67.8	67.8	67.8	45	45.7	0	0	---	0.00	30.114 
20:10	67.4	67.4	67.4	46	45.9	0	0	---	0.00	30.114 
20:15	66.9	66.9	66.9	48	46.6	0	0	---	0.00	30.112 
20:20	66.3	66.3	66.3	48	46.0	0	0	---	0.00	30.112 
20:25	65.6	65.6	65.6	49	45.9	0	0	---	0.00	30.112 
20:30	65.2	65.2	65.2	52	47.1	0	0	---	0.00	30.114 
20:35	64.7	64.7	64.7	54	47.7	0	0	---	0.00	30.114 
20:40	64.2	64.2	64.2	54	47.2	0	0	---	0.00	30.114 
20:45	63.9	63.9	63.9	55	47.4	0	0	---	0.00	30.116 
20:50	63.4	63.4	63.4	54	46.5	0	0	---	0.00	30.116 
20:55	63.1	63.1	63.1	55	46.7	0	0	---	0.00	30.116 
21:00	62.7	62.7	62.7	58	47.7	0	0	---	0.00	30.117 
21:05	62.6	62.6	62.6	58	47.6	0	0	---	0.00	30.117 
21:10	62.3	62.3	62.3	58	47.3	0	0	---	0.00	30.117 
21:15	62.0	62.0	62.0	58	47.0	0	0	---	0.00	30.117 
21:20	61.8	61.8	61.8	59	47.3	0	0	---	0.00	30.117 
21:25	61.5	61.5	61.5	61	47.9	0	0	---	0.00	30.117 
21:30	61.2	61.2	61.2	62	48.1	0	0	---	0.00	30.117 
21:35	60.9	60.9	60.9	62	47.8	0	0	---	0.00	30.117 
21:40	60.5	60.5	60.5	63	47.8	0	0	---	0.00	30.117 
21:45	60.4	60.4	60.4	65	48.6	0	0	---	0.00	30.120 
21:50	60.1	60.1	60.1	66	48.7	0	0	---	0.00	30.120 
21:55	59.9	59.9	59.9	67	48.9	0	0	---	0.00	30.120 
22:00	59.6	59.6	59.6	69	49.4	0	0	---	0.00	30.117 
22:05	59.3	59.3	59.3	71	49.9	0	0	---	0.00	30.117 
22:10	59.0	59.0	59.0	72	50.0	0	0	---	0.00	30.117 
22:15	58.7	58.7	58.7	73	50.1	0	0	---	0.00	30.110 
22:20	58.6	58.6	58.6	72	49.6	0	1	112	0.00	30.110 
22:25	58.4	58.4	58.4	70	48.7	0	4	112	0.00	30.110 
22:30	58.7	58.7	58.7	65	47.0	0	2	112	0.00	30.111 
22:35	59.0	59.0	59.0	64	46.8	0	1	112	0.00	30.111 
22:40	59.5	59.5	59.5	62	46.5	0	1	112	0.00	30.111 
22:45	59.9	59.9	59.9	61	46.4	0	0	---	0.00	30.112 
22:50	60.1	60.1	60.1	61	46.6	0	0	---	0.00	30.112 
22:55	60.1	60.1	60.1	61	46.6	0	0	---	0.00	30.112 
23:00	59.9	59.9	59.9	62	46.8	0	0	---	0.00	30.110 
23:05	59.6	59.6	59.6	62	46.6	0	0	---	0.00	30.110 
23:10	59.5	59.5	59.5	62	46.5	0	0	---	0.00	30.110 
23:15	59.2	59.2	59.2	63	46.6	0	0	---	0.00	30.106 
23:20	58.9	58.9	58.9	64	46.7	0	0	---	0.00	30.106 
23:25	58.6	58.6	58.6	65	46.9	0	0	---	0.00	30.106 
23:30	58.4	58.4	58.4	65	46.7	0	0	---	0.00	30.108 
23:35	58.1	58.1	58.1	66	46.8	0	0	---	0.00	30.108 
23:40	58.0	58.0	58.0	67	47.1	0	0	---	0.00	30.108 
23:45	57.6	57.6	57.6	68	47.1	0	0	---	0.00	30.109 
23:50	57.3	57.3	57.3	68	46.8	0	0	---	0.00	30.109 
23:55	57.0	57.0	57.0	69	46.9	0	0	---	0.00	30.109 

CoCoRaHS
IN-AL-39
A2 Web Hosting
Creative Commons License
GoDaddy
search engine by freefind advanced

loaded 2018-11-20 03:26:11 • last modified 2010-11-18 10:43:29
Privacy PolicyDisclaimer
• wx.awcolley.com is powered by PmWiki v.2002016 •
• all content (unless otherwise noted) © 2018 A W Colley